HAL Airport
VOBG : now visible

Airfield :











YOU CAN JOIN US ON...

 
LOGIN :

Register | Disclaimer

   EN    FR    IT 

 









Legend :    VFR   Marginal VFR   IFR   Intensive IFR   Very Intensive IFR
Visi :
Ceiling :
>= 8 km
>= 3000ft
5 to 8 km
1000 to 3000 ft
1500m to 5 km
500 to 1000 ft
800 to 1500m
200 to 500 ft
< 800m
< 200 ft
Symbols :   Thunderstorms  Fog  Heavy snow  Heavy precipitations  Wind > 20 kt






- Airport Elevation : 2912 ft


VOBG - HAL

CURRENT METAR :
  • 011500Z 14004KT 6000 NSC 30/13 Q1015 NOSIG

EXPIRED METARs :
  • 011400Z 00000KT 6000 NSC 31/11 Q1014 NOSIG
  • 011300Z 11004KT 8000 NSC 32/06 Q1013 NOSIG

TAF TAF VOBG
Valid from the 01 at 15:00 until the 02 at 00:00 UTC


011400Z 0115/0124 11010KT 6000 FEW015



MET'MAP, your aeronautical weather chart ! - Copyright ORBIFLY December 2007 - Disclaimer

ORBIFLY MET'MAP TEAM :

Programming & Development : Alexandra Zaïnal
Concept & original design : Baudouin d'Aumeries
Assistance for programming : Marc-Olivier Méhu
Technical & hardware support : Manuel Goepfert

Contact : metmap@orbifly.com




SOURCES & CREDITS :

   NOAA       Earth
Advisory